Pagrindinis puslapis
METAR-TAF:

METAR-TAF

Oro uostai :

Edremit, Turkija

platuma: 39-33-16N, ilguma: 27-00-49E, Aukštis: 15 m

Dabartinis oras

Ataskaita buvo paskelbta 1 valandą ir 13 minutes, ne 00:50 UTC
Vėjas 1 kt nuo kintamojo kryptimis
Temperatūra 9°C
Drėgmė 81%
Slėgis 1018 hPa
Matomumas 10 km arba daugiau
Mažai debesys ne aukštis 3500 ft
Išsisklaidę debesys ne aukštis 10000 ft

METAR: LTFD 010050Z VRB01KT 9999 FEW035 SCT100 09/06 Q1018

Laikas: 05:03 (02:03 UTC)

Prognozė

Ataskaita buvo paskelbta 3 valandos ir 23 minutes, ne 22:40 UTC
Prognozė galioja nuo 01 metu 00 UTC su 01 metu 09 UTC
Vėjas 5 kt iš Rytų/Šiaurės Rytų
Matomumas 10 km arba daugiau
Mažai debesys ne aukštis 3500 ft
Išsisklaidę debesys ne aukštis 10000 ft
Tapsmas
nuo 01 metu 04 UTC su 01 metu 06 UTC
Vėjas 15 kt iš Rytų/Šiaurės Rytų

TAF: LTFD 312240Z 0100/0109 07005KT 9999 FEW035 SCT100 BECMG 0104/0106 07015KT

Orai ataskaitas ir orų prognozės (METAR, TAF).

turimą stotys yra geltonos ir raudonos taškus žemėlapyje.

Perkelti pele per norėdami pamatyti stoties vardą.

Tada spustelėkite, norėdami matyti oro stebėjimo ir prognozės.

Norėdami pakeisti žemėlapį: spustelėkite ant žalios mygtukų su juodo kryžiaus žemyn,; žalią mygtuką su brūkšneliu, jei norite nutolinti; arba žalių rodyklių gretimoms žemėlapius.


METAR-TAF: